Flight Track Log - Related Links

Times and Time Zones

All times are in EST time to prevent confusion due to time zone crossing. See the N612CT flight status page for this flight to view local times or setup timezone preferences in your user account.

Time Position Orientation Groundspeed Altitude Reporting Facility
EST Latitude Longitude Course Direction KTS MPH feet Rate Location/Type
Sun 10:28:44 26.9667 -82.3833 156° South 118 136 3,100  Level Tampa TRACON
Sun 10:29:44 26.9333 -82.3667 156° South 125 144 3,600 500 Climbing Tampa TRACON
Sun 10:31:00 26.9098 -82.3157 146° Southeast  Level FlightAware Approximate
Sun 10:38:00 26.6854 -82.1575 147° Southeast  Level FlightAware Approximate
Sun 10:39:00 26.6537 -82.1341 147° Southeast  Level FlightAware Approximate
Sun 10:40:00 26.6220 -82.1108 147° Southeast  Level FlightAware Approximate
Sun 10:41:00 26.5903 -82.0875 147° Southeast  Level FlightAware Approximate
Sun 10:42:00 26.5586 -82.0642 147° Southeast  Level FlightAware Approximate
Sun 10:43:00 26.5270 -82.0409 147° Southeast  Level FlightAware Approximate
Sun 10:44:00 26.4947 -82.0187 149° Southeast  Level FlightAware Approximate
Sun 10:45:00 26.4622 -81.9967 146° Southeast  Level FlightAware Approximate
Sun 10:46:00 26.4307 -81.9731 146° Southeast  Level FlightAware Approximate
Sun 10:47:00 26.3993 -81.9495 147° Southeast  Level FlightAware Approximate
Sun 10:48:00 26.3675 -81.9263 147° Southeast  Level FlightAware Approximate
Sun 10:49:00 26.3357 -81.9032 147° Southeast  Level FlightAware Approximate
Sun 10:50:00 26.3039 -81.8801 147° Southeast  Level FlightAware Approximate
Sun 10:51:00 26.2722 -81.8570 147° Southeast  Level FlightAware Approximate
Sun 10:52:00 26.2404 -81.8339 147° Southeast  Level FlightAware Approximate
Sun 10:53:00 26.2087 -81.8107 146° Southeast  Level FlightAware Approximate
Sun 10:54:00 26.1772 -81.7871 146° Southeast  Level FlightAware Approximate
Sun 10:55:00 26.1500 -81.7667 146° Southeast  Level FlightAware Approximate
Sun 10:56:00 26.1524 -81.7756 146° Southeast  Level Estimated
Sun 10:57:00 26.1524 -81.7756 146° Southeast  Level Estimated
Sun 10:58:00 26.1524 -81.7756 146° Southeast  Level Estimated
Sun 10:59:00 26.1524 -81.7756 146° Southeast  Level Estimated
Sun 11:00:00 26.1524 -81.7756 146° Southeast  Level Estimated

Login

Don't have an account? Register now (free) for customized features, flight alerts, and more!